»·PEaware :: AAL271 KLAX-KSMF

AAL271 :: KLAX-KSMF

FLIGHT INFORMATION

Flight Status: Arrived
Operator:
American Airlines
More flights by this operator :: More flights under this callsign
Pilot: David T. (24031)
Aircraft: BOEING 777-200
(B772)
More flights by this aircraft type
Origin: KLAX Los Angeles Intl
United States
Destination: KSMF Sacramento Intl
United States
More flights between these airports :: More routes between these airports
Route: +LADYJ4 CSTRO NURAY SUUTR2
File this flight plan on PilotEdge
Remarks:
Altitude:
(Current/Filed)
36,000ft
Speed:
(Current/Filed)
450kts
Departed: 23-Mar-19 09:50 AM
Arrived: 23-Mar-19 10:54 AM
Distance/Time
Traveled:
324nm/1:03
Distance/Time
To Go:
Arrived

Flight Plot

Page will automatically refresh every two minutes.


Map Options




Map Legend


Flown Route
Filed Route
Departure Airport
Arrival Airport
Navaid (VOR, NDB)
Fix

Horizontal Profiles

Position Reports

Time Latitude Longitude Heading Altitude Ground
Speed
23-Mar-19 09:16 33.940560 -118.408970 265 139ft 0kts
23-Mar-19 09:17 33.940560 -118.408970 265 139ft 0kts
23-Mar-19 09:18 33.940560 -118.408970 265 139ft 0kts
23-Mar-19 09:19 33.940560 -118.408970 265 139ft 0kts
23-Mar-19 09:20 33.940560 -118.408970 265 139ft 0kts
23-Mar-19 09:21 33.940560 -118.408970 265 139ft 0kts
23-Mar-19 09:22 33.940560 -118.408970 265 139ft 0kts
23-Mar-19 09:23 33.940560 -118.408970 265 139ft 0kts
23-Mar-19 09:24 33.940560 -118.408970 265 139ft 0kts
23-Mar-19 09:25 33.940560 -118.408970 265 139ft 0kts
23-Mar-19 09:26 33.940560 -118.408971 265 139ft 0kts
23-Mar-19 09:27 33.940560 -118.408974 265 139ft 0kts
23-Mar-19 09:28 33.940559 -118.408976 265 139ft 0kts
23-Mar-19 09:29 33.940559 -118.408978 265 139ft 0kts
23-Mar-19 09:30 33.940559 -118.408980 265 139ft 0kts
23-Mar-19 09:31 33.940559 -118.408983 265 139ft 0kts
23-Mar-19 09:32 33.940559 -118.408985 265 139ft 0kts
23-Mar-19 09:33 33.940559 -118.408987 265 139ft 0kts
23-Mar-19 09:34 33.940559 -118.408990 265 139ft 0kts
23-Mar-19 09:35 33.940558 -118.408992 265 139ft 0kts
23-Mar-19 09:36 33.940559 -118.408982 265 139ft 1kts
23-Mar-19 09:37 33.940903 -118.408272 199 139ft 2kts
23-Mar-19 09:38 33.939662 -118.407862 170 139ft 2kts
23-Mar-19 09:39 33.939631 -118.407856 170 139ft 0kts
23-Mar-19 09:40 33.939629 -118.407856 170 139ft 0kts
23-Mar-19 09:41 33.938571 -118.407729 174 139ft 21kts
23-Mar-19 09:42 33.938338 -118.403965 81 139ft 13kts
23-Mar-19 09:43 33.939009 -118.398277 83 139ft 24kts
23-Mar-19 09:44 33.939723 -118.391043 83 139ft 17kts
23-Mar-19 09:45 33.940189 -118.386001 83 139ft 23kts
23-Mar-19 09:46 33.940639 -118.381619 80 139ft 9kts
23-Mar-19 09:47 33.940712 -118.380887 97 139ft 0kts
23-Mar-19 09:48 33.939810 -118.380520 261 139ft 2kts
23-Mar-19 09:49 33.935743 -118.419469 263 1946ft 196kts
23-Mar-19 09:50 33.929306 -118.488740 264 4485ft 215kts
23-Mar-19 09:51 33.923414 -118.560567 264 5091ft 219kts
23-Mar-19 09:52 33.934432 -118.639310 313 7770ft 276kts
23-Mar-19 09:53 34.005072 -118.675004 354 8012ft 280kts
23-Mar-19 09:54 34.083053 -118.671111 7 8086ft 281kts
23-Mar-19 09:56 34.162081 -118.651945 11 11474ft 317kts
23-Mar-19 09:57 34.259974 -118.638885 358 14136ft 383kts
23-Mar-19 09:58 34.368405 -118.660948 348 17704ft 408kts
23-Mar-19 09:59 34.483550 -118.685454 351 21071ft 430kts
23-Mar-19 10:00 34.604524 -118.708842 350 24128ft 450kts
23-Mar-19 10:01 34.728477 -118.743825 337 26854ft 470kts
23-Mar-19 10:02 34.846717 -118.817996 330 29386ft 487kts
23-Mar-19 10:03 34.965541 -118.900534 330 31963ft 490kts
23-Mar-19 10:04 35.083410 -118.981701 330 34479ft 483kts
23-Mar-19 10:05 35.156423 -119.032153 330 35785ft 481kts
23-Mar-19 10:06 35.203512 -119.064592 330 36006ft 479kts
23-Mar-19 10:07 35.319154 -119.145004 330 36005ft 478kts
23-Mar-19 10:08 35.434878 -119.225482 332 36004ft 478kts
23-Mar-19 10:09 35.559505 -119.281965 343 36006ft 478kts
23-Mar-19 10:10 35.686752 -119.331067 341 36005ft 478kts
23-Mar-19 10:11 35.812893 -119.381708 341 36006ft 478kts
23-Mar-19 10:12 35.939581 -119.432782 341 36005ft 478kts
23-Mar-19 10:13 36.066003 -119.484059 341 36005ft 478kts
23-Mar-19 10:14 36.192324 -119.535480 341 36006ft 478kts
23-Mar-19 10:15 36.318605 -119.586958 341 36005ft 478kts
23-Mar-19 10:15 36.423973 -119.630122 341 36005ft 478kts
23-Mar-19 10:16 36.550066 -119.682052 341 36005ft 478kts
23-Mar-19 10:17 36.668006 -119.755992 327 35386ft 475kts
23-Mar-19 10:19 36.797624 -119.859378 327 34456ft 471kts
23-Mar-19 10:19 36.889428 -119.931939 327 34003ft 467kts
23-Mar-19 10:20 36.999461 -120.018526 327 33469ft 463kts
23-Mar-19 10:21 37.107581 -120.104026 327 31827ft 455kts
23-Mar-19 10:22 37.213183 -120.188302 327 30002ft 443kts
23-Mar-19 10:23 37.316355 -120.270607 327 27815ft 442kts
23-Mar-19 10:24 37.420020 -120.353720 327 25060ft 427kts
23-Mar-19 10:25 37.511160 -120.433468 320 22885ft 382kts
23-Mar-19 10:26 37.593162 -120.517581 321 20888ft 382kts
23-Mar-19 10:27 37.675368 -120.599879 321 19652ft 372kts
23-Mar-19 10:28 37.757114 -120.677412 335 18596ft 366kts
23-Mar-19 10:29 37.853075 -120.713413 325 17671ft 360kts
23-Mar-19 10:30 37.923742 -120.801321 313 16108ft 352kts
23-Mar-19 10:31 37.990533 -120.891195 313 14965ft 347kts
23-Mar-19 10:32 38.056298 -120.979762 313 13855ft 342kts
23-Mar-19 10:33 38.117673 -121.067203 310 12785ft 323kts
23-Mar-19 10:34 38.173896 -121.150815 310 12260ft 293kts
23-Mar-19 10:35 38.226011 -121.226898 313 11747ft 283kts
23-Mar-19 10:36 38.282058 -121.296573 315 10557ft 279kts
23-Mar-19 10:37 38.336849 -121.365646 315 9737ft 275kts
23-Mar-19 10:38 38.389951 -121.433287 314 8999ft 267kts
23-Mar-19 10:39 38.443371 -121.501469 314 8375ft 268kts
23-Mar-19 10:40 38.497573 -121.566145 321 6881ft 257kts
23-Mar-19 10:41 38.553578 -121.621015 321 5759ft 259kts
23-Mar-19 10:42 38.610532 -121.674939 335 4945ft 246kts
23-Mar-19 10:43 38.675231 -121.690344 355 4169ft 232kts
23-Mar-19 10:44 38.739593 -121.694685 0 3414ft 230kts
23-Mar-19 10:45 38.802531 -121.691240 2 3208ft 221kts
23-Mar-19 10:46 38.864084 -121.687583 2 3148ft 219kts
23-Mar-19 10:47 38.921660 -121.671557 49 3144ft 218kts
23-Mar-19 10:48 38.911159 -121.602308 152 2827ft 218kts
23-Mar-19 10:49 38.855977 -121.598547 181 2027ft 174kts
23-Mar-19 10:50 38.813113 -121.599327 180 1624ft 146kts
23-Mar-19 10:51 38.772227 -121.600007 180 1067ft 146kts
23-Mar-19 10:52 38.731687 -121.600678 180 306ft 144kts
23-Mar-19 10:53 38.699880 -121.601180 180 41ft 32kts
23-Mar-19 10:54 38.695010 -121.600484 153 41ft 13kts
23-Mar-19 10:55 38.692412 -121.598495 154 41ft 9kts
23-Mar-19 10:56 38.695551 -121.597843 0 41ft 17kts
23-Mar-19 10:57 38.696489 -121.593399 142 41ft 28kts
23-Mar-19 10:58 38.693604 -121.592441 227 41ft 0kts

Navigation Log

Ident Type
Flight plan parsing failed, navigation log unavailable